KAUW/AUW METAR and TAF weather

Enter ICAO airport designator
Station Type Date Time Source
KAUW METAR 2024/04/15 09:54 UTC NOAA

KAUW 150954Z AUTO 00000KT 10SM CLR 05/01 A2992 RMK AO2 SLP135 T00500006


Station Type Date Time Source
KAUW Decoded METAR 2024/04/15 09:54 UTC NOAA

WAUSAU DOWNTOWN AIRPORT, WI, United States (KAUW) 44-56N 089-37W 362M
Apr 15, 2024 - 05:54 AM EDT / 2024.04.15 0954 UTC
Wind: Calm:0
Visibility: 10 mile(s):0
Sky conditions: clear
Temperature: 41.0 F (5.0 C)
Dew Point: 33.1 F (0.6 C)
Relative Humidity: 73%
Pressure (altimeter): 29.92 in. Hg (1013 hPa)
ob: KAUW 150954Z AUTO 00000KT 10SM CLR 05/01 A2992 RMK AO2 SLP135 T00500006
cycle: 10

Station Type Date Time Source
KAUW TAF 2024/04/15 07:54 UTC NOAA